sensor_id;sensor_type;location;lat;lon;timestamp;P1;durP1;ratioP1;P2;durP2;ratioP2
27778;SDS011;30234;48.090;11.464;2023-05-14T00:03:37;19.23;;;12.48;;
27778;SDS011;30234;48.090;11.464;2023-05-14T00:07:39;20.38;;;13.68;;
27778;SDS011;30234;48.090;11.464;2023-05-14T00:11:40;16.95;;;13.10;;
27778;SDS011;30234;48.090;11.464;2023-05-14T00:15:41;20.67;;;13.98;;
27778;SDS011;30234;48.090;11.464;2023-05-14T00:19:45;20.00;;;12.98;;
27778;SDS011;30234;48.090;11.464;2023-05-14T00:23:46;18.35;;;13.07;;
27778;SDS011;30234;48.090;11.464;2023-05-14T00:27:47;19.65;;;12.93;;
27778;SDS011;30234;48.090;11.464;2023-05-14T00:31:48;18.33;;;12.52;;
27778;SDS011;30234;48.090;11.464;2023-05-14T00:35:48;19.80;;;13.40;;
27778;SDS011;30234;48.090;11.464;2023-05-14T00:39:50;19.20;;;13.82;;
27778;SDS011;30234;48.090;11.464;2023-05-14T00:43:51;16.50;;;12.35;;
27778;SDS011;30234;48.090;11.464;2023-05-14T00:47:52;16.02;;;12.65;;
27778;SDS011;30234;48.090;11.464;2023-05-14T00:51:53;16.10;;;11.35;;
27778;SDS011;30234;48.090;11.464;2023-05-14T00:55:57;16.08;;;11.13;;
27778;SDS011;30234;48.090;11.464;2023-05-14T00:59:58;18.25;;;12.82;;
27778;SDS011;30234;48.090;11.464;2023-05-14T01:04:00;18.27;;;13.02;;
27778;SDS011;30234;48.090;11.464;2023-05-14T01:08:02;19.05;;;13.15;;
27778;SDS011;30234;48.090;11.464;2023-05-14T01:12:53;16.42;;;12.00;;
27778;SDS011;30234;48.090;11.464;2023-05-14T01:17:10;14.80;;;11.00;;
27778;SDS011;30234;48.090;11.464;2023-05-14T01:21:22;17.48;;;12.38;;
27778;SDS011;30234;48.090;11.464;2023-05-14T01:25:35;19.23;;;13.23;;
27778;SDS011;30234;48.090;11.464;2023-05-14T01:29:37;19.48;;;12.77;;
27778;SDS011;30234;48.090;11.464;2023-05-14T01:33:43;18.10;;;13.10;;
27778;SDS011;30234;48.090;11.464;2023-05-14T01:37:46;14.77;;;11.68;;
27778;SDS011;30234;48.090;11.464;2023-05-14T01:41:49;16.77;;;12.93;;
27778;SDS011;30234;48.090;11.464;2023-05-14T01:45:51;17.98;;;13.10;;
27778;SDS011;30234;48.090;11.464;2023-05-14T01:49:54;17.92;;;13.10;;
27778;SDS011;30234;48.090;11.464;2023-05-14T01:53:55;22.20;;;13.73;;
27778;SDS011;30234;48.090;11.464;2023-05-14T01:57:56;18.38;;;12.60;;
27778;SDS011;30234;48.090;11.464;2023-05-14T02:01:56;19.92;;;12.93;;
27778;SDS011;30234;48.090;11.464;2023-05-14T02:05:57;20.38;;;13.63;;
27778;SDS011;30234;48.090;11.464;2023-05-14T02:09:58;17.45;;;11.57;;
27778;SDS011;30234;48.090;11.464;2023-05-14T02:13:59;17.73;;;12.23;;
27778;SDS011;30234;48.090;11.464;2023-05-14T02:18:00;16.42;;;10.55;;
27778;SDS011;30234;48.090;11.464;2023-05-14T02:22:01;16.13;;;11.35;;
27778;SDS011;30234;48.090;11.464;2023-05-14T02:26:02;19.73;;;11.93;;
27778;SDS011;30234;48.090;11.464;2023-05-14T02:30:03;20.33;;;13.30;;
27778;SDS011;30234;48.090;11.464;2023-05-14T02:34:05;21.75;;;12.48;;
27778;SDS011;30234;48.090;11.464;2023-05-14T02:38:06;22.75;;;13.80;;
27778;SDS011;30234;48.090;11.464;2023-05-14T02:42:07;20.95;;;12.70;;
27778;SDS011;30234;48.090;11.464;2023-05-14T02:46:08;23.25;;;13.50;;
27778;SDS011;30234;48.090;11.464;2023-05-14T02:50:09;25.60;;;13.45;;
27778;SDS011;30234;48.090;11.464;2023-05-14T02:54:10;20.23;;;13.20;;
27778;SDS011;30234;48.090;11.464;2023-05-14T02:58:11;18.58;;;13.07;;
27778;SDS011;30234;48.090;11.464;2023-05-14T03:02:12;20.45;;;12.88;;
27778;SDS011;30234;48.090;11.464;2023-05-14T03:06:12;19.35;;;13.63;;
27778;SDS011;30234;48.090;11.464;2023-05-14T03:10:13;22.50;;;13.90;;
27778;SDS011;30234;48.090;11.464;2023-05-14T03:14:14;24.27;;;14.85;;
27778;SDS011;30234;48.090;11.464;2023-05-14T03:18:15;26.40;;;14.77;;
27778;SDS011;30234;48.090;11.464;2023-05-14T03:22:16;23.95;;;14.63;;
27778;SDS011;30234;48.090;11.464;2023-05-14T03:26:17;29.08;;;15.68;;
27778;SDS011;30234;48.090;11.464;2023-05-14T03:30:18;24.40;;;16.25;;
27778;SDS011;30234;48.090;11.464;2023-05-14T03:34:21;27.23;;;16.80;;
27778;SDS011;30234;48.090;11.464;2023-05-14T03:38:22;26.75;;;14.98;;
27778;SDS011;30234;48.090;11.464;2023-05-14T03:42:23;27.55;;;15.70;;
27778;SDS011;30234;48.090;11.464;2023-05-14T03:46:24;22.70;;;15.23;;
27778;SDS011;30234;48.090;11.464;2023-05-14T03:50:25;24.45;;;14.20;;
27778;SDS011;30234;48.090;11.464;2023-05-14T03:54:26;23.10;;;15.18;;
27778;SDS011;30234;48.090;11.464;2023-05-14T03:58:27;25.45;;;15.82;;
27778;SDS011;30234;48.090;11.464;2023-05-14T04:02:27;27.70;;;15.60;;
27778;SDS011;30234;48.090;11.464;2023-05-14T04:06:28;25.77;;;15.25;;
27778;SDS011;30234;48.090;11.464;2023-05-14T04:10:30;22.35;;;14.07;;
27778;SDS011;30234;48.090;11.464;2023-05-14T04:14:31;28.08;;;15.00;;
27778;SDS011;30234;48.090;11.464;2023-05-14T04:18:32;21.10;;;14.27;;
27778;SDS011;30234;48.090;11.464;2023-05-14T04:22:35;25.13;;;13.55;;
27778;SDS011;30234;48.090;11.464;2023-05-14T04:26:36;22.75;;;14.65;;
27778;SDS011;30234;48.090;11.464;2023-05-14T04:30:37;22.98;;;13.93;;
27778;SDS011;30234;48.090;11.464;2023-05-14T04:34:38;26.00;;;13.90;;
27778;SDS011;30234;48.090;11.464;2023-05-14T04:38:39;26.83;;;14.73;;
27778;SDS011;30234;48.090;11.464;2023-05-14T04:42:40;25.02;;;13.57;;
27778;SDS011;30234;48.090;11.464;2023-05-14T04:46:41;20.98;;;13.13;;
27778;SDS011;30234;48.090;11.464;2023-05-14T04:50:42;23.10;;;14.48;;
27778;SDS011;30234;48.090;11.464;2023-05-14T04:54:43;26.38;;;14.18;;
27778;SDS011;30234;48.090;11.464;2023-05-14T04:58:44;26.95;;;13.98;;
27778;SDS011;30234;48.090;11.464;2023-05-14T05:02:45;22.83;;;13.13;;
27778;SDS011;30234;48.090;11.464;2023-05-14T05:06:45;24.95;;;13.73;;
27778;SDS011;30234;48.090;11.464;2023-05-14T05:10:46;19.67;;;12.85;;
27778;SDS011;30234;48.090;11.464;2023-05-14T05:14:47;19.13;;;12.35;;
27778;SDS011;30234;48.090;11.464;2023-05-14T05:18:48;19.85;;;12.80;;
27778;SDS011;30234;48.090;11.464;2023-05-14T05:22:49;21.42;;;12.52;;
27778;SDS011;30234;48.090;11.464;2023-05-14T05:26:50;21.13;;;13.23;;
27778;SDS011;30234;48.090;11.464;2023-05-14T05:30:51;21.48;;;12.48;;
27778;SDS011;30234;48.090;11.464;2023-05-14T05:34:52;28.30;;;14.93;;
27778;SDS011;30234;48.090;11.464;2023-05-14T05:38:53;22.92;;;13.73;;
27778;SDS011;30234;48.090;11.464;2023-05-14T05:42:55;22.60;;;14.07;;
27778;SDS011;30234;48.090;11.464;2023-05-14T05:46:56;24.83;;;14.52;;
27778;SDS011;30234;48.090;11.464;2023-05-14T05:50:56;24.08;;;14.77;;
27778;SDS011;30234;48.090;11.464;2023-05-14T05:54:57;22.45;;;14.50;;
27778;SDS011;30234;48.090;11.464;2023-05-14T05:58:58;26.45;;;14.43;;
27778;SDS011;30234;48.090;11.464;2023-05-14T06:02:59;25.23;;;14.38;;
27778;SDS011;30234;48.090;11.464;2023-05-14T06:07:00;25.70;;;14.43;;
27778;SDS011;30234;48.090;11.464;2023-05-14T06:11:01;21.70;;;14.48;;
27778;SDS011;30234;48.090;11.464;2023-05-14T06:15:02;23.15;;;13.27;;
27778;SDS011;30234;48.090;11.464;2023-05-14T06:19:04;20.05;;;12.55;;
27778;SDS011;30234;48.090;11.464;2023-05-14T06:23:05;21.77;;;13.15;;
27778;SDS011;30234;48.090;11.464;2023-05-14T06:27:08;22.17;;;13.15;;
27778;SDS011;30234;48.090;11.464;2023-05-14T06:31:10;22.70;;;13.23;;
27778;SDS011;30234;48.090;11.464;2023-05-14T06:35:11;25.73;;;13.23;;
27778;SDS011;30234;48.090;11.464;2023-05-14T06:39:12;22.60;;;13.18;;
27778;SDS011;30234;48.090;11.464;2023-05-14T06:43:13;19.08;;;12.32;;
27778;SDS011;30234;48.090;11.464;2023-05-14T06:47:14;20.08;;;13.20;;
27778;SDS011;30234;48.090;11.464;2023-05-14T06:51:15;18.75;;;11.75;;
27778;SDS011;30234;48.090;11.464;2023-05-14T06:55:16;18.90;;;12.02;;
27778;SDS011;30234;48.090;11.464;2023-05-14T06:59:17;18.83;;;12.35;;
27778;SDS011;30234;48.090;11.464;2023-05-14T07:03:18;20.27;;;12.75;;
27778;SDS011;30234;48.090;11.464;2023-05-14T07:07:18;18.27;;;11.98;;
27778;SDS011;30234;48.090;11.464;2023-05-14T07:11:20;17.95;;;11.25;;
27778;SDS011;30234;48.090;11.464;2023-05-14T07:15:21;17.85;;;11.82;;
27778;SDS011;30234;48.090;11.464;2023-05-14T07:19:22;19.38;;;10.90;;
27778;SDS011;30234;48.090;11.464;2023-05-14T07:23:23;13.38;;;9.48;;
27778;SDS011;30234;48.090;11.464;2023-05-14T07:27:24;16.63;;;10.70;;
27778;SDS011;30234;48.090;11.464;2023-05-14T07:31:25;17.67;;;9.85;;
27778;SDS011;30234;48.090;11.464;2023-05-14T07:35:26;15.77;;;10.60;;
27778;SDS011;30234;48.090;11.464;2023-05-14T07:39:27;15.98;;;10.43;;
27778;SDS011;30234;48.090;11.464;2023-05-14T07:43:28;15.68;;;10.80;;
27778;SDS011;30234;48.090;11.464;2023-05-14T07:47:29;16.15;;;10.35;;
27778;SDS011;30234;48.090;11.464;2023-05-14T07:51:30;14.80;;;10.13;;
27778;SDS011;30234;48.090;11.464;2023-05-14T07:55:32;13.85;;;9.60;;
27778;SDS011;30234;48.090;11.464;2023-05-14T07:59:33;15.98;;;10.32;;
27778;SDS011;30234;48.090;11.464;2023-05-14T08:03:34;17.70;;;11.05;;
27778;SDS011;30234;48.090;11.464;2023-05-14T08:07:35;15.20;;;10.35;;
27778;SDS011;30234;48.090;11.464;2023-05-14T08:11:36;14.93;;;10.27;;
27778;SDS011;30234;48.090;11.464;2023-05-14T08:15:38;17.63;;;9.65;;
27778;SDS011;30234;48.090;11.464;2023-05-14T08:19:39;12.77;;;8.95;;
27778;SDS011;30234;48.090;11.464;2023-05-14T08:23:39;12.00;;;8.80;;
27778;SDS011;30234;48.090;11.464;2023-05-14T08:27:40;13.88;;;8.43;;
27778;SDS011;30234;48.090;11.464;2023-05-14T08:31:41;14.88;;;9.23;;
27778;SDS011;30234;48.090;11.464;2023-05-14T08:35:42;13.02;;;9.70;;
27778;SDS011;30234;48.090;11.464;2023-05-14T08:39:43;14.20;;;9.88;;
27778;SDS011;30234;48.090;11.464;2023-05-14T08:43:56;16.65;;;9.98;;
27778;SDS011;30234;48.090;11.464;2023-05-14T08:48:10;13.55;;;9.38;;
27778;SDS011;30234;48.090;11.464;2023-05-14T08:52:14;16.00;;;9.77;;
27778;SDS011;30234;48.090;11.464;2023-05-14T08:56:17;14.60;;;10.38;;
27778;SDS011;30234;48.090;11.464;2023-05-14T09:00:18;15.70;;;10.10;;
27778;SDS011;30234;48.090;11.464;2023-05-14T09:04:20;18.05;;;11.07;;
27778;SDS011;30234;48.090;11.464;2023-05-14T09:08:23;17.23;;;10.20;;
27778;SDS011;30234;48.090;11.464;2023-05-14T09:12:24;19.45;;;10.65;;
27778;SDS011;30234;48.090;11.464;2023-05-14T09:16:25;21.10;;;11.50;;
27778;SDS011;30234;48.090;11.464;2023-05-14T09:20:26;16.27;;;10.63;;
27778;SDS011;30234;48.090;11.464;2023-05-14T09:24:27;17.73;;;11.30;;
27778;SDS011;30234;48.090;11.464;2023-05-14T09:28:30;17.83;;;11.30;;
27778;SDS011;30234;48.090;11.464;2023-05-14T09:32:38;18.38;;;10.48;;
27778;SDS011;30234;48.090;11.464;2023-05-14T09:36:43;15.18;;;9.50;;
27778;SDS011;30234;48.090;11.464;2023-05-14T09:40:43;17.73;;;9.73;;
27778;SDS011;30234;48.090;11.464;2023-05-14T09:44:45;14.18;;;9.27;;
27778;SDS011;30234;48.090;11.464;2023-05-14T09:48:46;12.65;;;8.63;;
27778;SDS011;30234;48.090;11.464;2023-05-14T09:52:47;13.00;;;8.57;;
27778;SDS011;30234;48.090;11.464;2023-05-14T09:56:48;13.60;;;8.75;;
27778;SDS011;30234;48.090;11.464;2023-05-14T10:00:49;10.65;;;7.75;;
27778;SDS011;30234;48.090;11.464;2023-05-14T10:04:52;16.20;;;9.63;;
27778;SDS011;30234;48.090;11.464;2023-05-14T10:08:59;11.77;;;8.32;;
27778;SDS011;30234;48.090;11.464;2023-05-14T10:13:13;12.65;;;8.98;;
27778;SDS011;30234;48.090;11.464;2023-05-14T10:17:23;12.68;;;9.23;;
27778;SDS011;30234;48.090;11.464;2023-05-14T10:21:30;12.30;;;8.32;;
27778;SDS011;30234;48.090;11.464;2023-05-14T10:25:36;13.98;;;7.63;;
27778;SDS011;30234;48.090;11.464;2023-05-14T10:29:37;12.13;;;7.75;;
27778;SDS011;30234;48.090;11.464;2023-05-14T10:33:48;13.00;;;8.68;;
27778;SDS011;30234;48.090;11.464;2023-05-14T10:37:50;10.65;;;8.00;;
27778;SDS011;30234;48.090;11.464;2023-05-14T10:41:51;12.60;;;8.43;;
27778;SDS011;30234;48.090;11.464;2023-05-14T10:45:52;11.80;;;8.00;;
27778;SDS011;30234;48.090;11.464;2023-05-14T10:49:54;13.20;;;8.80;;
27778;SDS011;30234;48.090;11.464;2023-05-14T10:53:59;10.55;;;8.02;;
27778;SDS011;30234;48.090;11.464;2023-05-14T10:58:03;9.95;;;6.90;;
27778;SDS011;30234;48.090;11.464;2023-05-14T11:02:04;8.98;;;7.22;;
27778;SDS011;30234;48.090;11.464;2023-05-14T11:06:05;8.52;;;6.50;;
27778;SDS011;30234;48.090;11.464;2023-05-14T11:10:08;9.40;;;6.93;;
27778;SDS011;30234;48.090;11.464;2023-05-14T11:14:11;8.13;;;6.35;;
27778;SDS011;30234;48.090;11.464;2023-05-14T11:18:12;9.55;;;6.97;;
27778;SDS011;30234;48.090;11.464;2023-05-14T11:22:13;9.15;;;7.47;;
27778;SDS011;30234;48.090;11.464;2023-05-14T11:26:14;12.55;;;8.93;;
27778;SDS011;30234;48.090;11.464;2023-05-14T11:30:16;9.55;;;7.43;;
27778;SDS011;30234;48.090;11.464;2023-05-14T11:34:18;11.90;;;7.25;;
27778;SDS011;30234;48.090;11.464;2023-05-14T11:38:20;10.75;;;6.80;;
27778;SDS011;30234;48.090;11.464;2023-05-14T11:42:21;9.15;;;6.90;;
27778;SDS011;30234;48.090;11.464;2023-05-14T11:46:22;7.07;;;6.13;;
27778;SDS011;30234;48.090;11.464;2023-05-14T11:50:25;9.75;;;6.53;;
27778;SDS011;30234;48.090;11.464;2023-05-14T11:54:26;7.43;;;6.00;;
27778;SDS011;30234;48.090;11.464;2023-05-14T11:58:31;8.23;;;5.32;;
27778;SDS011;30234;48.090;11.464;2023-05-14T12:02:35;7.45;;;5.35;;
27778;SDS011;30234;48.090;11.464;2023-05-14T12:06:37;5.85;;;4.75;;
27778;SDS011;30234;48.090;11.464;2023-05-14T12:10:42;7.03;;;5.13;;
27778;SDS011;30234;48.090;11.464;2023-05-14T12:14:43;6.13;;;5.53;;
27778;SDS011;30234;48.090;11.464;2023-05-14T12:18:44;6.25;;;4.57;;
27778;SDS011;30234;48.090;11.464;2023-05-14T12:22:45;5.40;;;4.75;;
27778;SDS011;30234;48.090;11.464;2023-05-14T12:26:46;5.10;;;4.53;;
27778;SDS011;30234;48.090;11.464;2023-05-14T12:30:54;5.47;;;5.03;;
27778;SDS011;30234;48.090;11.464;2023-05-14T12:34:56;4.95;;;4.30;;
27778;SDS011;30234;48.090;11.464;2023-05-14T12:38:57;5.38;;;4.30;;
27778;SDS011;30234;48.090;11.464;2023-05-14T12:43:03;4.70;;;4.22;;
27778;SDS011;30234;48.090;11.464;2023-05-14T12:47:04;4.75;;;4.25;;
27778;SDS011;30234;48.090;11.464;2023-05-14T12:51:05;5.35;;;4.82;;
27778;SDS011;30234;48.090;11.464;2023-05-14T12:55:06;5.47;;;4.30;;
27778;SDS011;30234;48.090;11.464;2023-05-14T12:59:08;4.47;;;4.07;;
27778;SDS011;30234;48.090;11.464;2023-05-14T13:03:09;5.05;;;4.20;;
27778;SDS011;30234;48.090;11.464;2023-05-14T13:07:10;8.75;;;4.95;;
27778;SDS011;30234;48.090;11.464;2023-05-14T13:11:11;5.15;;;4.13;;
27778;SDS011;30234;48.090;11.464;2023-05-14T13:15:12;4.75;;;4.35;;
27778;SDS011;30234;48.090;11.464;2023-05-14T13:19:13;5.07;;;4.50;;
27778;SDS011;30234;48.090;11.464;2023-05-14T13:23:14;5.53;;;4.93;;
27778;SDS011;30234;48.090;11.464;2023-05-14T13:27:15;4.45;;;4.05;;
27778;SDS011;30234;48.090;11.464;2023-05-14T13:31:15;4.45;;;4.05;;
27778;SDS011;30234;48.090;11.464;2023-05-14T13:35:16;4.68;;;4.13;;
27778;SDS011;30234;48.090;11.464;2023-05-14T13:39:17;3.80;;;3.50;;
27778;SDS011;30234;48.090;11.464;2023-05-14T13:43:22;3.83;;;3.10;;
27778;SDS011;30234;48.090;11.464;2023-05-14T13:47:23;5.00;;;3.50;;
27778;SDS011;30234;48.090;11.464;2023-05-14T13:51:24;4.72;;;4.30;;
27778;SDS011;30234;48.090;11.464;2023-05-14T13:55:25;4.72;;;3.75;;
27778;SDS011;30234;48.090;11.464;2023-05-14T13:59:26;3.38;;;2.95;;
27778;SDS011;30234;48.090;11.464;2023-05-14T14:03:27;3.50;;;3.17;;
27778;SDS011;30234;48.090;11.464;2023-05-14T14:07:28;3.22;;;2.92;;
27778;SDS011;30234;48.090;11.464;2023-05-14T14:11:29;4.25;;;3.55;;
27778;SDS011;30234;48.090;11.464;2023-05-14T14:15:30;3.55;;;2.97;;
27778;SDS011;30234;48.090;11.464;2023-05-14T14:19:31;3.15;;;2.80;;
27778;SDS011;30234;48.090;11.464;2023-05-14T14:23:32;2.45;;;2.20;;
27778;SDS011;30234;48.090;11.464;2023-05-14T14:27:33;3.22;;;2.97;;
27778;SDS011;30234;48.090;11.464;2023-05-14T14:31:37;3.20;;;2.50;;
27778;SDS011;30234;48.090;11.464;2023-05-14T14:35:38;3.55;;;3.25;;
27778;SDS011;30234;48.090;11.464;2023-05-14T14:39:39;4.53;;;3.22;;
27778;SDS011;30234;48.090;11.464;2023-05-14T14:43:40;3.47;;;3.00;;
27778;SDS011;30234;48.090;11.464;2023-05-14T14:47:43;2.55;;;2.20;;
27778;SDS011;30234;48.090;11.464;2023-05-14T14:51:45;2.08;;;1.83;;
27778;SDS011;30234;48.090;11.464;2023-05-14T14:55:47;3.05;;;2.80;;
27778;SDS011;30234;48.090;11.464;2023-05-14T14:59:48;4.65;;;2.78;;
27778;SDS011;30234;48.090;11.464;2023-05-14T15:03:49;7.97;;;2.70;;
27778;SDS011;30234;48.090;11.464;2023-05-14T15:07:50;2.20;;;1.95;;
27778;SDS011;30234;48.090;11.464;2023-05-14T15:11:51;2.08;;;1.63;;
27778;SDS011;30234;48.090;11.464;2023-05-14T15:15:52;3.40;;;2.40;;
27778;SDS011;30234;48.090;11.464;2023-05-14T15:19:53;2.53;;;2.33;;
27778;SDS011;30234;48.090;11.464;2023-05-14T15:23:54;3.95;;;1.88;;
27778;SDS011;30234;48.090;11.464;2023-05-14T15:27:55;2.25;;;1.80;;
27778;SDS011;30234;48.090;11.464;2023-05-14T15:31:57;3.03;;;1.90;;
27778;SDS011;30234;48.090;11.464;2023-05-14T15:35:58;2.30;;;1.90;;
27778;SDS011;30234;48.090;11.464;2023-05-14T15:39:59;2.00;;;1.90;;
27778;SDS011;30234;48.090;11.464;2023-05-14T15:44:00;2.38;;;2.17;;
27778;SDS011;30234;48.090;11.464;2023-05-14T15:48:01;2.00;;;1.77;;
27778;SDS011;30234;48.090;11.464;2023-05-14T15:52:02;2.30;;;1.70;;
27778;SDS011;30234;48.090;11.464;2023-05-14T15:56:03;1.75;;;1.65;;
27778;SDS011;30234;48.090;11.464;2023-05-14T16:00:05;2.10;;;1.90;;
27778;SDS011;30234;48.090;11.464;2023-05-14T16:04:10;2.28;;;1.80;;
27778;SDS011;30234;48.090;11.464;2023-05-14T16:08:11;1.80;;;1.70;;
27778;SDS011;30234;48.090;11.464;2023-05-14T16:12:12;1.85;;;1.75;;
27778;SDS011;30234;48.090;11.464;2023-05-14T16:16:13;2.65;;;1.42;;
27778;SDS011;30234;48.090;11.464;2023-05-14T16:20:14;1.45;;;1.35;;
27778;SDS011;30234;48.090;11.464;2023-05-14T16:24:16;1.98;;;1.80;;
27778;SDS011;30234;48.090;11.464;2023-05-14T16:28:17;2.50;;;2.17;;
27778;SDS011;30234;48.090;11.464;2023-05-14T16:32:18;3.63;;;2.30;;
27778;SDS011;30234;48.090;11.464;2023-05-14T16:36:20;3.53;;;2.33;;
27778;SDS011;30234;48.090;11.464;2023-05-14T16:40:21;3.70;;;2.85;;
27778;SDS011;30234;48.090;11.464;2023-05-14T16:44:23;4.20;;;3.70;;
27778;SDS011;30234;48.090;11.464;2023-05-14T16:48:24;6.30;;;3.92;;
27778;SDS011;30234;48.090;11.464;2023-05-14T16:52:26;10.70;;;6.40;;
27778;SDS011;30234;48.090;11.464;2023-05-14T16:56:27;6.20;;;5.22;;
27778;SDS011;30234;48.090;11.464;2023-05-14T17:00:29;7.38;;;5.70;;
27778;SDS011;30234;48.090;11.464;2023-05-14T17:04:30;5.07;;;4.50;;
27778;SDS011;30234;48.090;11.464;2023-05-14T17:08:32;4.82;;;4.32;;
27778;SDS011;30234;48.090;11.464;2023-05-14T17:12:34;5.47;;;4.00;;
27778;SDS011;30234;48.090;11.464;2023-05-14T17:16:35;3.80;;;3.30;;
27778;SDS011;30234;48.090;11.464;2023-05-14T17:20:38;3.40;;;3.10;;
27778;SDS011;30234;48.090;11.464;2023-05-14T17:24:39;4.60;;;2.72;;
27778;SDS011;30234;48.090;11.464;2023-05-14T17:28:41;3.10;;;2.80;;
27778;SDS011;30234;48.090;11.464;2023-05-14T17:32:42;1.98;;;1.88;;
27778;SDS011;30234;48.090;11.464;2023-05-14T17:36:43;1.90;;;1.48;;
27778;SDS011;30234;48.090;11.464;2023-05-14T17:40:44;2.17;;;1.77;;
27778;SDS011;30234;48.090;11.464;2023-05-14T17:44:45;2.42;;;2.00;;
27778;SDS011;30234;48.090;11.464;2023-05-14T17:48:46;2.97;;;1.70;;
27778;SDS011;30234;48.090;11.464;2023-05-14T17:52:47;2.22;;;1.92;;
27778;SDS011;30234;48.090;11.464;2023-05-14T17:56:48;1.92;;;1.80;;
27778;SDS011;30234;48.090;11.464;2023-05-14T18:00:50;4.03;;;1.75;;
27778;SDS011;30234;48.090;11.464;2023-05-14T18:04:51;2.08;;;1.88;;
27778;SDS011;30234;48.090;11.464;2023-05-14T18:08:52;1.98;;;1.85;;
27778;SDS011;30234;48.090;11.464;2023-05-14T18:12:53;1.65;;;1.55;;
27778;SDS011;30234;48.090;11.464;2023-05-14T18:16:54;2.90;;;1.80;;
27778;SDS011;30234;48.090;11.464;2023-05-14T18:20:55;2.75;;;1.83;;
27778;SDS011;30234;48.090;11.464;2023-05-14T18:24:56;1.70;;;1.60;;
27778;SDS011;30234;48.090;11.464;2023-05-14T18:28:57;2.42;;;1.77;;
27778;SDS011;30234;48.090;11.464;2023-05-14T18:32:58;3.88;;;1.88;;
27778;SDS011;30234;48.090;11.464;2023-05-14T18:36:59;2.45;;;2.03;;
27778;SDS011;30234;48.090;11.464;2023-05-14T18:41:00;2.35;;;2.03;;
27778;SDS011;30234;48.090;11.464;2023-05-14T18:45:02;1.75;;;1.58;;
27778;SDS011;30234;48.090;11.464;2023-05-14T18:49:03;3.67;;;2.17;;
27778;SDS011;30234;48.090;11.464;2023-05-14T18:53:05;3.08;;;2.35;;
27778;SDS011;30234;48.090;11.464;2023-05-14T18:57:06;2.75;;;2.10;;
27778;SDS011;30234;48.090;11.464;2023-05-14T19:01:07;1.98;;;1.85;;
27778;SDS011;30234;48.090;11.464;2023-05-14T19:05:08;5.88;;;2.38;;
27778;SDS011;30234;48.090;11.464;2023-05-14T19:09:09;2.53;;;2.08;;
27778;SDS011;30234;48.090;11.464;2023-05-14T19:13:10;4.68;;;2.50;;
27778;SDS011;30234;48.090;11.464;2023-05-14T19:17:11;2.35;;;2.15;;
27778;SDS011;30234;48.090;11.464;2023-05-14T19:21:12;3.65;;;2.20;;
27778;SDS011;30234;48.090;11.464;2023-05-14T19:25:14;3.03;;;2.40;;
27778;SDS011;30234;48.090;11.464;2023-05-14T19:29:15;3.42;;;2.95;;
27778;SDS011;30234;48.090;11.464;2023-05-14T19:33:16;2.72;;;2.47;;
27778;SDS011;30234;48.090;11.464;2023-05-14T19:37:17;3.42;;;2.75;;
27778;SDS011;30234;48.090;11.464;2023-05-14T19:41:18;2.58;;;2.38;;
27778;SDS011;30234;48.090;11.464;2023-05-14T19:45:20;2.33;;;2.13;;
27778;SDS011;30234;48.090;11.464;2023-05-14T19:49:21;2.95;;;2.50;;
27778;SDS011;30234;48.090;11.464;2023-05-14T19:53:22;3.35;;;2.65;;
27778;SDS011;30234;48.090;11.464;2023-05-14T19:57:28;3.28;;;2.67;;
27778;SDS011;30234;48.090;11.464;2023-05-14T20:01:29;4.43;;;3.60;;
27778;SDS011;30234;48.090;11.464;2023-05-14T20:06:27;4.50;;;3.20;;
27778;SDS011;30234;48.090;11.464;2023-05-14T20:10:28;6.82;;;4.07;;
27778;SDS011;30234;48.090;11.464;2023-05-14T20:14:29;9.98;;;4.60;;
27778;SDS011;30234;48.090;11.464;2023-05-14T20:18:30;6.28;;;4.13;;
27778;SDS011;30234;48.090;11.464;2023-05-14T20:22:32;6.28;;;4.00;;
27778;SDS011;30234;48.090;11.464;2023-05-14T20:26:33;4.32;;;3.67;;
27778;SDS011;30234;48.090;11.464;2023-05-14T20:30:34;5.05;;;3.45;;
27778;SDS011;30234;48.090;11.464;2023-05-14T20:34:35;4.13;;;3.17;;
27778;SDS011;30234;48.090;11.464;2023-05-14T20:38:36;5.72;;;4.15;;
27778;SDS011;30234;48.090;11.464;2023-05-14T20:42:37;4.65;;;4.25;;
27778;SDS011;30234;48.090;11.464;2023-05-14T20:46:38;4.25;;;3.70;;
27778;SDS011;30234;48.090;11.464;2023-05-14T20:50:39;5.88;;;3.83;;
27778;SDS011;30234;48.090;11.464;2023-05-14T20:54:40;5.75;;;3.63;;
27778;SDS011;30234;48.090;11.464;2023-05-14T20:58:42;5.93;;;4.18;;
27778;SDS011;30234;48.090;11.464;2023-05-14T21:02:43;4.13;;;3.65;;
27778;SDS011;30234;48.090;11.464;2023-05-14T21:06:44;4.10;;;3.38;;
27778;SDS011;30234;48.090;11.464;2023-05-14T21:10:45;4.43;;;3.78;;
27778;SDS011;30234;48.090;11.464;2023-05-14T21:14:46;4.75;;;4.13;;
27778;SDS011;30234;48.090;11.464;2023-05-14T21:18:47;4.28;;;3.72;;
27778;SDS011;30234;48.090;11.464;2023-05-14T21:22:48;4.72;;;4.10;;
27778;SDS011;30234;48.090;11.464;2023-05-14T21:26:48;7.97;;;4.40;;
27778;SDS011;30234;48.090;11.464;2023-05-14T21:30:49;4.95;;;4.38;;
27778;SDS011;30234;48.090;11.464;2023-05-14T21:34:51;4.60;;;4.15;;
27778;SDS011;30234;48.090;11.464;2023-05-14T21:38:52;4.28;;;3.88;;
27778;SDS011;30234;48.090;11.464;2023-05-14T21:42:53;5.97;;;3.78;;
27778;SDS011;30234;48.090;11.464;2023-05-14T21:46:54;5.00;;;4.45;;
27778;SDS011;30234;48.090;11.464;2023-05-14T21:50:55;5.90;;;4.72;;
27778;SDS011;30234;48.090;11.464;2023-05-14T21:54:56;6.28;;;4.95;;
27778;SDS011;30234;48.090;11.464;2023-05-14T21:58:57;4.90;;;4.15;;
27778;SDS011;30234;48.090;11.464;2023-05-14T22:02:58;6.10;;;5.32;;
27778;SDS011;30234;48.090;11.464;2023-05-14T22:06:59;6.25;;;4.68;;
27778;SDS011;30234;48.090;11.464;2023-05-14T22:11:00;6.82;;;5.10;;
27778;SDS011;30234;48.090;11.464;2023-05-14T22:15:01;5.80;;;5.20;;
27778;SDS011;30234;48.090;11.464;2023-05-14T22:19:02;6.53;;;5.22;;
27778;SDS011;30234;48.090;11.464;2023-05-14T22:23:03;6.72;;;5.47;;
27778;SDS011;30234;48.090;11.464;2023-05-14T22:27:04;7.25;;;5.97;;
27778;SDS011;30234;48.090;11.464;2023-05-14T22:31:05;6.85;;;6.15;;
27778;SDS011;30234;48.090;11.464;2023-05-14T22:35:06;7.28;;;5.32;;
27778;SDS011;30234;48.090;11.464;2023-05-14T22:39:07;7.47;;;5.25;;
27778;SDS011;30234;48.090;11.464;2023-05-14T22:43:08;6.55;;;5.40;;
27778;SDS011;30234;48.090;11.464;2023-05-14T22:47:09;6.85;;;5.32;;
27778;SDS011;30234;48.090;11.464;2023-05-14T22:51:10;9.40;;;5.82;;
27778;SDS011;30234;48.090;11.464;2023-05-14T22:55:11;9.90;;;5.72;;
27778;SDS011;30234;48.090;11.464;2023-05-14T22:59:12;6.30;;;5.05;;
27778;SDS011;30234;48.090;11.464;2023-05-14T23:03:13;8.75;;;5.55;;
27778;SDS011;30234;48.090;11.464;2023-05-14T23:07:14;5.75;;;4.72;;
27778;SDS011;30234;48.090;11.464;2023-05-14T23:11:15;5.20;;;4.57;;
27778;SDS011;30234;48.090;11.464;2023-05-14T23:15:16;5.57;;;4.65;;
27778;SDS011;30234;48.090;11.464;2023-05-14T23:19:17;6.35;;;5.22;;
27778;SDS011;30234;48.090;11.464;2023-05-14T23:23:17;5.93;;;4.72;;
27778;SDS011;30234;48.090;11.464;2023-05-14T23:27:18;6.10;;;5.03;;
27778;SDS011;30234;48.090;11.464;2023-05-14T23:31:20;5.68;;;4.85;;
27778;SDS011;30234;48.090;11.464;2023-05-14T23:35:20;5.63;;;4.85;;
27778;SDS011;30234;48.090;11.464;2023-05-14T23:39:21;5.43;;;4.32;;